sensor_id;sensor_type;location;lat;lon;timestamp;pressure;altitude;pressure_sealevel;temperature;humidity
16821;BME280;8527;49.740;6.604;2024-01-15T00:03:20;98899.19;;;-2.97;97.15
16821;BME280;8527;49.740;6.604;2024-01-15T00:08:18;98899.72;;;-2.92;96.95
16821;BME280;8527;49.740;6.604;2024-01-15T00:13:16;98888.94;;;-2.99;97.68
16821;BME280;8527;49.740;6.604;2024-01-15T00:18:21;98889.97;;;-2.88;97.64
16821;BME280;8527;49.740;6.604;2024-01-15T00:23:19;98870.75;;;-2.86;97.46
16821;BME280;8527;49.740;6.604;2024-01-15T00:28:17;98876.16;;;-2.89;98.17
16821;BME280;8527;49.740;6.604;2024-01-15T00:33:21;98870.44;;;-2.81;98.08
16821;BME280;8527;49.740;6.604;2024-01-15T00:38:24;98861.72;;;-2.80;98.46
16821;BME280;8527;49.740;6.604;2024-01-15T00:43:22;98858.38;;;-2.82;98.96
16821;BME280;8527;49.740;6.604;2024-01-15T00:48:23;98861.31;;;-2.74;99.18
16821;BME280;8527;49.740;6.604;2024-01-15T00:53:22;98860.38;;;-2.73;100.00
16821;BME280;8527;49.740;6.604;2024-01-15T00:58:20;98869.91;;;-2.73;100.00
16821;BME280;8527;49.740;6.604;2024-01-15T01:03:19;98848.63;;;-2.78;100.00
16821;BME280;8527;49.740;6.604;2024-01-15T01:08:21;98839.81;;;-2.76;100.00
16821;BME280;8527;49.740;6.604;2024-01-15T01:13:21;98838.66;;;-2.72;100.00
16821;BME280;8527;49.740;6.604;2024-01-15T01:18:20;98833.38;;;-2.70;100.00
16821;BME280;8527;49.740;6.604;2024-01-15T01:23:26;98818.91;;;-2.74;100.00
16821;BME280;8527;49.740;6.604;2024-01-15T01:28:25;98813.41;;;-2.70;100.00
16821;BME280;8527;49.740;6.604;2024-01-15T01:33:31;98816.53;;;-2.64;100.00
16821;BME280;8527;49.740;6.604;2024-01-15T01:38:35;98826.41;;;-2.70;100.00
16821;BME280;8527;49.740;6.604;2024-01-15T01:43:33;98827.03;;;-2.66;100.00
16821;BME280;8527;49.740;6.604;2024-01-15T01:48:32;98820.47;;;-2.59;100.00
16821;BME280;8527;49.740;6.604;2024-01-15T01:53:36;98820.66;;;-2.62;100.00
16821;BME280;8527;49.740;6.604;2024-01-15T01:58:36;98815.06;;;-2.56;100.00
16821;BME280;8527;49.740;6.604;2024-01-15T02:03:39;98814.00;;;-2.53;100.00
16821;BME280;8527;49.740;6.604;2024-01-15T02:08:45;98804.53;;;-2.54;100.00
16821;BME280;8527;49.740;6.604;2024-01-15T02:13:44;98806.19;;;-2.53;100.00
16821;BME280;8527;49.740;6.604;2024-01-15T02:18:46;98796.16;;;-2.58;100.00
16821;BME280;8527;49.740;6.604;2024-01-15T02:23:47;98788.88;;;-2.52;100.00
16821;BME280;8527;49.740;6.604;2024-01-15T02:28:45;98796.75;;;-2.54;100.00
16821;BME280;8527;49.740;6.604;2024-01-15T02:33:44;98797.38;;;-2.50;100.00
16821;BME280;8527;49.740;6.604;2024-01-15T02:38:47;98798.84;;;-2.46;100.00
16821;BME280;8527;49.740;6.604;2024-01-15T02:43:50;98789.47;;;-2.49;100.00
16821;BME280;8527;49.740;6.604;2024-01-15T02:48:58;98789.56;;;-2.37;100.00
16821;BME280;8527;49.740;6.604;2024-01-15T02:54:00;98798.47;;;-2.42;100.00
16821;BME280;8527;49.740;6.604;2024-01-15T02:59:01;98793.47;;;-2.32;100.00
16821;BME280;8527;49.740;6.604;2024-01-15T03:03:59;98795.63;;;-2.26;100.00
16821;BME280;8527;49.740;6.604;2024-01-15T03:09:02;98797.50;;;-2.28;100.00
16821;BME280;8527;49.740;6.604;2024-01-15T03:14:03;98800.81;;;-2.26;100.00
16821;BME280;8527;49.740;6.604;2024-01-15T03:19:02;98792.94;;;-2.24;100.00
16821;BME280;8527;49.740;6.604;2024-01-15T03:24:04;98775.94;;;-2.17;100.00
16821;BME280;8527;49.740;6.604;2024-01-15T03:29:03;98776.16;;;-2.20;100.00
16821;BME280;8527;49.740;6.604;2024-01-15T03:34:07;98761.41;;;-2.19;100.00
16821;BME280;8527;49.740;6.604;2024-01-15T03:39:17;98760.84;;;-2.12;100.00
16821;BME280;8527;49.740;6.604;2024-01-15T03:44:17;98764.44;;;-2.01;100.00
16821;BME280;8527;49.740;6.604;2024-01-15T03:49:19;98752.97;;;-1.99;100.00
16821;BME280;8527;49.740;6.604;2024-01-15T03:54:20;98747.19;;;-2.02;100.00
16821;BME280;8527;49.740;6.604;2024-01-15T03:59:18;98743.53;;;-2.00;100.00
16821;BME280;8527;49.740;6.604;2024-01-15T04:04:17;98736.09;;;-1.93;100.00
16821;BME280;8527;49.740;6.604;2024-01-15T04:09:22;98724.75;;;-1.92;100.00
16821;BME280;8527;49.740;6.604;2024-01-15T04:14:23;98735.50;;;-1.96;100.00
16821;BME280;8527;49.740;6.604;2024-01-15T04:19:27;98724.53;;;-2.00;100.00
16821;BME280;8527;49.740;6.604;2024-01-15T04:24:31;98726.16;;;-1.99;100.00
16821;BME280;8527;49.740;6.604;2024-01-15T04:29:39;98712.88;;;-1.83;100.00
16821;BME280;8527;49.740;6.604;2024-01-15T04:34:42;98709.53;;;-1.85;100.00
16821;BME280;8527;49.740;6.604;2024-01-15T04:39:46;98704.00;;;-1.80;100.00
16821;BME280;8527;49.740;6.604;2024-01-15T04:44:49;98708.47;;;-1.82;100.00
16821;BME280;8527;49.740;6.604;2024-01-15T04:49:50;98698.69;;;-1.79;100.00
16821;BME280;8527;49.740;6.604;2024-01-15T04:55:00;98687.59;;;-1.70;100.00
16821;BME280;8527;49.740;6.604;2024-01-15T05:00:02;98690.41;;;-1.61;100.00
16821;BME280;8527;49.740;6.604;2024-01-15T05:05:00;98689.13;;;-1.67;100.00
16821;BME280;8527;49.740;6.604;2024-01-15T05:10:01;98675.31;;;-1.67;100.00
16821;BME280;8527;49.740;6.604;2024-01-15T05:14:59;98676.47;;;-1.72;100.00
16821;BME280;8527;49.740;6.604;2024-01-15T05:20:01;98674.00;;;-1.62;100.00
16821;BME280;8527;49.740;6.604;2024-01-15T05:25:09;98662.31;;;-1.67;100.00
16821;BME280;8527;49.740;6.604;2024-01-15T05:30:10;98672.94;;;-1.59;100.00
16821;BME280;8527;49.740;6.604;2024-01-15T05:35:11;98659.34;;;-1.63;100.00
16821;BME280;8527;49.740;6.604;2024-01-15T05:40:15;98655.06;;;-1.52;100.00
16821;BME280;8527;49.740;6.604;2024-01-15T05:45:14;98648.22;;;-1.53;100.00
16821;BME280;8527;49.740;6.604;2024-01-15T05:50:13;98637.34;;;-1.59;100.00
16821;BME280;8527;49.740;6.604;2024-01-15T05:55:14;98640.78;;;-1.58;100.00
16821;BME280;8527;49.740;6.604;2024-01-15T06:00:14;98647.28;;;-1.52;100.00
16821;BME280;8527;49.740;6.604;2024-01-15T06:05:19;98640.22;;;-1.50;100.00
16821;BME280;8527;49.740;6.604;2024-01-15T06:10:23;98638.75;;;-1.43;100.00
16821;BME280;8527;49.740;6.604;2024-01-15T06:15:21;98633.81;;;-1.46;100.00
16821;BME280;8527;49.740;6.604;2024-01-15T06:20:19;98633.34;;;-1.51;100.00
16821;BME280;8527;49.740;6.604;2024-01-15T06:25:25;98639.00;;;-1.58;100.00
16821;BME280;8527;49.740;6.604;2024-01-15T06:30:27;98624.72;;;-1.52;100.00
16821;BME280;8527;49.740;6.604;2024-01-15T06:35:25;98627.41;;;-1.53;100.00
16821;BME280;8527;49.740;6.604;2024-01-15T06:40:26;98615.16;;;-1.51;100.00
16821;BME280;8527;49.740;6.604;2024-01-15T06:45:28;98626.34;;;-1.51;100.00
16821;BME280;8527;49.740;6.604;2024-01-15T06:50:26;98619.50;;;-1.52;100.00
16821;BME280;8527;49.740;6.604;2024-01-15T06:55:30;98622.81;;;-1.50;100.00
16821;BME280;8527;49.740;6.604;2024-01-15T07:00:28;98612.41;;;-1.50;100.00
16821;BME280;8527;49.740;6.604;2024-01-15T07:05:27;98597.50;;;-1.48;100.00
16821;BME280;8527;49.740;6.604;2024-01-15T07:10:28;98614.75;;;-1.35;100.00
16821;BME280;8527;49.740;6.604;2024-01-15T07:15:29;98608.84;;;-1.37;100.00
16821;BME280;8527;49.740;6.604;2024-01-15T07:20:27;98616.53;;;-1.36;100.00
16821;BME280;8527;49.740;6.604;2024-01-15T07:25:26;98613.44;;;-1.41;100.00
16821;BME280;8527;49.740;6.604;2024-01-15T07:30:30;98607.19;;;-1.38;100.00
16821;BME280;8527;49.740;6.604;2024-01-15T07:35:28;98604.47;;;-1.37;100.00
16821;BME280;8527;49.740;6.604;2024-01-15T07:40:27;98612.16;;;-1.35;100.00
16821;BME280;8527;49.740;6.604;2024-01-15T07:45:25;98614.41;;;-1.42;100.00
16821;BME280;8527;49.740;6.604;2024-01-15T07:50:26;98615.84;;;-1.38;100.00
16821;BME280;8527;49.740;6.604;2024-01-15T07:55:28;98619.75;;;-1.44;100.00
16821;BME280;8527;49.740;6.604;2024-01-15T08:00:26;98617.97;;;-1.43;100.00
16821;BME280;8527;49.740;6.604;2024-01-15T08:05:27;98623.16;;;-1.43;100.00
16821;BME280;8527;49.740;6.604;2024-01-15T08:10:27;98629.31;;;-1.44;100.00
16821;BME280;8527;49.740;6.604;2024-01-15T08:15:25;98626.34;;;-1.39;100.00
16821;BME280;8527;49.740;6.604;2024-01-15T08:20:23;98630.59;;;-1.38;100.00
16821;BME280;8527;49.740;6.604;2024-01-15T08:25:27;98627.66;;;-1.34;100.00
16821;BME280;8527;49.740;6.604;2024-01-15T08:30:26;98625.75;;;-1.32;100.00
16821;BME280;8527;49.740;6.604;2024-01-15T08:35:28;98623.84;;;-1.30;100.00
16821;BME280;8527;49.740;6.604;2024-01-15T08:40:28;98630.34;;;-1.24;100.00
16821;BME280;8527;49.740;6.604;2024-01-15T08:45:27;98615.78;;;-1.27;100.00
16821;BME280;8527;49.740;6.604;2024-01-15T08:50:25;98623.38;;;-1.23;100.00
16821;BME280;8527;49.740;6.604;2024-01-15T08:55:24;98621.22;;;-1.18;100.00
16821;BME280;8527;49.740;6.604;2024-01-15T09:00:25;98620.16;;;-1.16;100.00
16821;BME280;8527;49.740;6.604;2024-01-15T09:05:23;98619.91;;;-1.13;100.00
16821;BME280;8527;49.740;6.604;2024-01-15T09:10:22;98636.13;;;-1.09;100.00
16821;BME280;8527;49.740;6.604;2024-01-15T09:15:20;98633.97;;;-1.04;100.00
16821;BME280;8527;49.740;6.604;2024-01-15T09:20:22;98640.59;;;-1.00;100.00
16821;BME280;8527;49.740;6.604;2024-01-15T09:25:21;98642.97;;;-0.96;100.00
16821;BME280;8527;49.740;6.604;2024-01-15T09:30:19;98640.78;;;-0.91;100.00
16821;BME280;8527;49.740;6.604;2024-01-15T09:35:18;98629.69;;;-0.93;100.00
16821;BME280;8527;49.740;6.604;2024-01-15T09:40:20;98641.13;;;-0.85;100.00
16821;BME280;8527;49.740;6.604;2024-01-15T09:45:19;98635.19;;;-0.75;100.00
16821;BME280;8527;49.740;6.604;2024-01-15T09:50:17;98639.81;;;-0.79;100.00
16821;BME280;8527;49.740;6.604;2024-01-15T09:55:19;98645.88;;;-0.78;100.00
16821;BME280;8527;49.740;6.604;2024-01-15T10:00:18;98645.63;;;-0.75;100.00
16821;BME280;8527;49.740;6.604;2024-01-15T10:05:16;98630.19;;;-0.67;100.00
16821;BME280;8527;49.740;6.604;2024-01-15T10:10:14;98631.13;;;-0.57;100.00
16821;BME280;8527;49.740;6.604;2024-01-15T10:15:22;98621.94;;;-0.51;100.00
16821;BME280;8527;49.740;6.604;2024-01-15T10:20:22;98613.63;;;-0.45;100.00
16821;BME280;8527;49.740;6.604;2024-01-15T10:25:20;98606.13;;;-0.38;100.00
16821;BME280;8527;49.740;6.604;2024-01-15T10:30:26;98609.38;;;-0.24;100.00
16821;BME280;8527;49.740;6.604;2024-01-15T10:35:32;98601.28;;;-0.21;100.00
16821;BME280;8527;49.740;6.604;2024-01-15T10:40:31;98601.56;;;-0.24;100.00
16821;BME280;8527;49.740;6.604;2024-01-15T10:45:32;98595.53;;;-0.25;100.00
16821;BME280;8527;49.740;6.604;2024-01-15T10:50:32;98595.06;;;-0.09;100.00
16821;BME280;8527;49.740;6.604;2024-01-15T10:55:33;98590.28;;;-0.04;100.00
16821;BME280;8527;49.740;6.604;2024-01-15T11:00:36;98587.13;;;-0.07;100.00
16821;BME280;8527;49.740;6.604;2024-01-15T11:05:37;98583.09;;;0.10;100.00
16821;BME280;8527;49.740;6.604;2024-01-15T11:10:44;98582.63;;;0.05;100.00
16821;BME280;8527;49.740;6.604;2024-01-15T11:16:01;98574.59;;;0.18;100.00
16821;BME280;8527;49.740;6.604;2024-01-15T11:21:20;98575.19;;;0.21;100.00
16821;BME280;8527;49.740;6.604;2024-01-15T11:26:34;98576.81;;;0.22;100.00
16821;BME280;8527;49.740;6.604;2024-01-15T11:32:04;98578.09;;;0.28;100.00
16821;BME280;8527;49.740;6.604;2024-01-15T11:37:05;98587.19;;;0.44;100.00
16821;BME280;8527;49.740;6.604;2024-01-15T11:42:04;98571.84;;;0.60;99.72
16821;BME280;8527;49.740;6.604;2024-01-15T11:47:05;98576.16;;;0.71;99.07
16821;BME280;8527;49.740;6.604;2024-01-15T11:52:05;98584.50;;;0.75;98.45
16821;BME280;8527;49.740;6.604;2024-01-15T11:57:09;98582.06;;;0.93;97.90
16821;BME280;8527;49.740;6.604;2024-01-15T12:02:11;98577.41;;;0.96;97.54
16821;BME280;8527;49.740;6.604;2024-01-15T12:07:13;98570.94;;;1.20;96.42
16821;BME280;8527;49.740;6.604;2024-01-15T12:12:18;98584.69;;;1.42;94.54
16821;BME280;8527;49.740;6.604;2024-01-15T12:17:26;98587.31;;;1.32;94.40
16821;BME280;8527;49.740;6.604;2024-01-15T12:22:24;98581.13;;;1.43;94.85
16821;BME280;8527;49.740;6.604;2024-01-15T12:27:23;98592.25;;;1.55;93.13
16821;BME280;8527;49.740;6.604;2024-01-15T12:32:25;98594.56;;;1.68;91.42
16821;BME280;8527;49.740;6.604;2024-01-15T12:37:24;98604.59;;;1.82;89.73
16821;BME280;8527;49.740;6.604;2024-01-15T12:42:25;98611.34;;;1.75;90.36
16821;BME280;8527;49.740;6.604;2024-01-15T12:47:29;98612.41;;;1.92;89.02
16821;BME280;8527;49.740;6.604;2024-01-15T12:52:28;98614.38;;;1.80;89.37
16821;BME280;8527;49.740;6.604;2024-01-15T12:57:27;98616.84;;;1.72;88.86
16821;BME280;8527;49.740;6.604;2024-01-15T13:02:28;98621.41;;;1.60;88.03
16821;BME280;8527;49.740;6.604;2024-01-15T13:07:29;98625.41;;;1.45;86.03
16821;BME280;8527;49.740;6.604;2024-01-15T13:12:28;98633.38;;;1.43;84.87
16821;BME280;8527;49.740;6.604;2024-01-15T13:17:32;98636.28;;;1.50;84.92
16821;BME280;8527;49.740;6.604;2024-01-15T13:22:33;98646.03;;;1.58;83.72
16821;BME280;8527;49.740;6.604;2024-01-15T13:27:37;98637.94;;;1.51;83.79
16821;BME280;8527;49.740;6.604;2024-01-15T13:32:38;98637.22;;;1.39;83.70
16821;BME280;8527;49.740;6.604;2024-01-15T13:37:37;98644.66;;;1.34;84.90
16821;BME280;8527;49.740;6.604;2024-01-15T13:42:36;98647.94;;;1.36;84.57
16821;BME280;8527;49.740;6.604;2024-01-15T13:47:38;98660.47;;;1.32;83.64
16821;BME280;8527;49.740;6.604;2024-01-15T13:52:37;98663.78;;;1.44;83.08
16821;BME280;8527;49.740;6.604;2024-01-15T13:57:36;98658.56;;;1.44;82.86
16821;BME280;8527;49.740;6.604;2024-01-15T14:02:37;98662.94;;;1.34;81.78
16821;BME280;8527;49.740;6.604;2024-01-15T14:07:36;98653.34;;;1.44;81.34
16821;BME280;8527;49.740;6.604;2024-01-15T14:12:34;98666.69;;;1.51;79.80
16821;BME280;8527;49.740;6.604;2024-01-15T14:17:41;98658.97;;;1.69;78.58
16821;BME280;8527;49.740;6.604;2024-01-15T14:22:43;98665.00;;;1.69;77.62
16821;BME280;8527;49.740;6.604;2024-01-15T14:27:42;98667.78;;;1.58;78.21
16821;BME280;8527;49.740;6.604;2024-01-15T14:32:43;98672.44;;;1.45;77.89
16821;BME280;8527;49.740;6.604;2024-01-15T14:37:42;98681.38;;;1.32;78.92
16821;BME280;8527;49.740;6.604;2024-01-15T14:42:43;98689.06;;;1.34;78.74
16821;BME280;8527;49.740;6.604;2024-01-15T14:47:44;98694.56;;;1.21;79.12
16821;BME280;8527;49.740;6.604;2024-01-15T14:52:43;98694.44;;;1.32;79.41
16821;BME280;8527;49.740;6.604;2024-01-15T14:57:44;98696.75;;;1.16;79.82
16821;BME280;8527;49.740;6.604;2024-01-15T15:02:45;98694.50;;;1.01;80.60
16821;BME280;8527;49.740;6.604;2024-01-15T15:07:45;98724.19;;;1.00;80.66
16821;BME280;8527;49.740;6.604;2024-01-15T15:12:43;98714.94;;;0.86;80.98
16821;BME280;8527;49.740;6.604;2024-01-15T15:17:47;98720.44;;;0.83;81.30
16821;BME280;8527;49.740;6.604;2024-01-15T15:22:49;98727.31;;;0.84;81.08
16821;BME280;8527;49.740;6.604;2024-01-15T15:27:50;98736.44;;;0.68;81.99
16821;BME280;8527;49.740;6.604;2024-01-15T15:32:54;98750.19;;;0.70;81.96
16821;BME280;8527;49.740;6.604;2024-01-15T15:37:52;98742.97;;;0.53;81.83
16821;BME280;8527;49.740;6.604;2024-01-15T15:42:59;98767.66;;;0.49;82.13
16821;BME280;8527;49.740;6.604;2024-01-15T15:48:00;98771.78;;;0.51;82.01
16821;BME280;8527;49.740;6.604;2024-01-15T15:52:59;98779.63;;;0.51;81.67
16821;BME280;8527;49.740;6.604;2024-01-15T15:58:00;98796.28;;;0.39;82.37
16821;BME280;8527;49.740;6.604;2024-01-15T16:03:07;98811.63;;;0.32;82.66
16821;BME280;8527;49.740;6.604;2024-01-15T16:08:06;98808.75;;;0.35;82.65
16821;BME280;8527;49.740;6.604;2024-01-15T16:13:04;98820.75;;;0.38;83.23
16821;BME280;8527;49.740;6.604;2024-01-15T16:18:03;98833.84;;;0.48;82.80
16821;BME280;8527;49.740;6.604;2024-01-15T16:23:04;98826.97;;;0.47;82.99
16821;BME280;8527;49.740;6.604;2024-01-15T16:28:03;98845.38;;;0.45;82.76
16821;BME280;8527;49.740;6.604;2024-01-15T16:33:01;98851.94;;;0.39;82.87
16821;BME280;8527;49.740;6.604;2024-01-15T16:38:00;98849.06;;;0.43;82.97
16821;BME280;8527;49.740;6.604;2024-01-15T16:43:02;98861.72;;;0.47;82.48
16821;BME280;8527;49.740;6.604;2024-01-15T16:48:05;98865.84;;;0.50;83.01
16821;BME280;8527;49.740;6.604;2024-01-15T16:53:04;98875.47;;;0.49;83.28
16821;BME280;8527;49.740;6.604;2024-01-15T16:58:08;98891.94;;;0.50;83.93
16821;BME280;8527;49.740;6.604;2024-01-15T17:03:08;98893.41;;;0.43;84.47
16821;BME280;8527;49.740;6.604;2024-01-15T17:08:09;98906.09;;;0.47;84.55
16821;BME280;8527;49.740;6.604;2024-01-15T17:13:11;98908.13;;;0.44;84.79
16821;BME280;8527;49.740;6.604;2024-01-15T17:18:09;98914.72;;;0.48;84.99
16821;BME280;8527;49.740;6.604;2024-01-15T17:23:10;98920.47;;;0.41;85.55
16821;BME280;8527;49.740;6.604;2024-01-15T17:28:14;98934.09;;;0.45;85.70
16821;BME280;8527;49.740;6.604;2024-01-15T17:33:13;98939.91;;;0.37;85.75
16821;BME280;8527;49.740;6.604;2024-01-15T17:38:15;98953.09;;;0.36;86.37
16821;BME280;8527;49.740;6.604;2024-01-15T17:43:18;98969.56;;;0.36;86.79
16821;BME280;8527;49.740;6.604;2024-01-15T17:48:19;98967.44;;;0.30;87.51
16821;BME280;8527;49.740;6.604;2024-01-15T17:53:20;98978.34;;;0.35;88.27
16821;BME280;8527;49.740;6.604;2024-01-15T17:58:24;98988.66;;;0.37;89.15
16821;BME280;8527;49.740;6.604;2024-01-15T18:03:23;98980.59;;;0.40;90.62
16821;BME280;8527;49.740;6.604;2024-01-15T18:08:24;98988.22;;;0.32;91.42
16821;BME280;8527;49.740;6.604;2024-01-15T18:13:25;98989.38;;;0.27;92.69
16821;BME280;8527;49.740;6.604;2024-01-15T18:18:23;98983.38;;;0.16;93.47
16821;BME280;8527;49.740;6.604;2024-01-15T18:23:22;98993.22;;;0.12;94.05
16821;BME280;8527;49.740;6.604;2024-01-15T18:28:20;99004.69;;;0.09;93.84
16821;BME280;8527;49.740;6.604;2024-01-15T18:33:21;99010.97;;;0.18;93.87
16821;BME280;8527;49.740;6.604;2024-01-15T18:38:20;99014.06;;;0.12;94.22
16821;BME280;8527;49.740;6.604;2024-01-15T18:43:18;99010.63;;;0.11;94.83
16821;BME280;8527;49.740;6.604;2024-01-15T18:48:17;99027.72;;;0.04;94.38
16821;BME280;8527;49.740;6.604;2024-01-15T18:53:18;99028.16;;;-0.02;94.17
16821;BME280;8527;49.740;6.604;2024-01-15T18:58:17;99029.47;;;-0.08;94.30
16821;BME280;8527;49.740;6.604;2024-01-15T19:03:15;99041.44;;;-0.05;93.74
16821;BME280;8527;49.740;6.604;2024-01-15T19:08:16;99051.19;;;0.04;92.94
16821;BME280;8527;49.740;6.604;2024-01-15T19:13:20;99051.78;;;0.08;92.31
16821;BME280;8527;49.740;6.604;2024-01-15T19:18:19;99071.91;;;0.17;91.30
16821;BME280;8527;49.740;6.604;2024-01-15T19:23:18;99075.97;;;0.21;90.87
16821;BME280;8527;49.740;6.604;2024-01-15T19:28:16;99073.00;;;0.26;91.85
16821;BME280;8527;49.740;6.604;2024-01-15T19:33:18;99083.44;;;0.26;92.05
16821;BME280;8527;49.740;6.604;2024-01-15T19:38:17;99077.47;;;0.24;91.85
16821;BME280;8527;49.740;6.604;2024-01-15T19:43:17;99083.19;;;0.29;91.84
16821;BME280;8527;49.740;6.604;2024-01-15T19:48:18;99088.16;;;0.32;92.10
16821;BME280;8527;49.740;6.604;2024-01-15T19:53:17;99095.88;;;0.22;92.86
16821;BME280;8527;49.740;6.604;2024-01-15T19:58:18;99093.50;;;0.31;92.30
16821;BME280;8527;49.740;6.604;2024-01-15T20:03:20;99102.63;;;0.36;92.73
16821;BME280;8527;49.740;6.604;2024-01-15T20:08:18;99105.22;;;0.36;92.51
16821;BME280;8527;49.740;6.604;2024-01-15T20:13:17;99110.00;;;0.43;92.57
16821;BME280;8527;49.740;6.604;2024-01-15T20:18:16;99110.81;;;0.43;91.76
16821;BME280;8527;49.740;6.604;2024-01-15T20:23:17;99115.56;;;0.26;91.77
16821;BME280;8527;49.740;6.604;2024-01-15T20:28:15;99122.31;;;0.29;93.19
16821;BME280;8527;49.740;6.604;2024-01-15T20:33:14;99127.28;;;0.21;93.41
16821;BME280;8527;49.740;6.604;2024-01-15T20:38:16;99133.34;;;0.10;92.98
16821;BME280;8527;49.740;6.604;2024-01-15T20:43:15;99132.00;;;-0.07;93.46
16821;BME280;8527;49.740;6.604;2024-01-15T20:48:13;99138.19;;;0.03;92.62
16821;BME280;8527;49.740;6.604;2024-01-15T20:53:12;99137.69;;;0.09;92.64
16821;BME280;8527;49.740;6.604;2024-01-15T20:58:13;99140.44;;;0.08;92.76
16821;BME280;8527;49.740;6.604;2024-01-15T21:03:18;99140.44;;;-0.04;93.28
16821;BME280;8527;49.740;6.604;2024-01-15T21:08:19;99146.09;;;-0.10;93.09
16821;BME280;8527;49.740;6.604;2024-01-15T21:13:20;99143.34;;;-0.20;94.14
16821;BME280;8527;49.740;6.604;2024-01-15T21:18:18;99153.78;;;-0.20;94.06
16821;BME280;8527;49.740;6.604;2024-01-15T21:23:19;99150.13;;;-0.17;93.63
16821;BME280;8527;49.740;6.604;2024-01-15T21:28:20;99158.88;;;-0.07;93.96
16821;BME280;8527;49.740;6.604;2024-01-15T21:33:19;99154.63;;;-0.08;93.92
16821;BME280;8527;49.740;6.604;2024-01-15T21:38:17;99160.66;;;-0.19;94.15
16821;BME280;8527;49.740;6.604;2024-01-15T21:43:16;99160.03;;;-0.22;95.62
16821;BME280;8527;49.740;6.604;2024-01-15T21:48:17;99167.38;;;-0.27;95.31
16821;BME280;8527;49.740;6.604;2024-01-15T21:53:17;99170.81;;;-0.27;94.05
16821;BME280;8527;49.740;6.604;2024-01-15T21:58:16;99174.53;;;-0.43;94.82
16821;BME280;8527;49.740;6.604;2024-01-15T22:03:17;99186.69;;;-0.54;95.34
16821;BME280;8527;49.740;6.604;2024-01-15T22:08:16;99187.19;;;-0.49;95.58
16821;BME280;8527;49.740;6.604;2024-01-15T22:13:17;99181.16;;;-0.50;95.62
16821;BME280;8527;49.740;6.604;2024-01-15T22:18:21;99183.69;;;-0.37;94.92
16821;BME280;8527;49.740;6.604;2024-01-15T22:23:19;99188.09;;;-0.37;94.82
16821;BME280;8527;49.740;6.604;2024-01-15T22:28:18;99191.72;;;-0.40;95.57
16821;BME280;8527;49.740;6.604;2024-01-15T22:33:16;99188.50;;;-0.44;95.81
16821;BME280;8527;49.740;6.604;2024-01-15T22:38:18;99201.13;;;-0.37;95.49
16821;BME280;8527;49.740;6.604;2024-01-15T22:43:17;99208.94;;;-0.37;94.92
16821;BME280;8527;49.740;6.604;2024-01-15T22:48:15;99213.00;;;-0.46;95.12
16821;BME280;8527;49.740;6.604;2024-01-15T22:53:23;99217.63;;;-0.50;95.55
16821;BME280;8527;49.740;6.604;2024-01-15T22:58:24;99219.28;;;-0.49;95.93
16821;BME280;8527;49.740;6.604;2024-01-15T23:03:23;99214.09;;;-0.49;95.48
16821;BME280;8527;49.740;6.604;2024-01-15T23:08:26;99214.03;;;-0.60;95.18
16821;BME280;8527;49.740;6.604;2024-01-15T23:13:28;99224.38;;;-0.72;95.83
16821;BME280;8527;49.740;6.604;2024-01-15T23:18:30;99232.41;;;-0.75;95.00
16821;BME280;8527;49.740;6.604;2024-01-15T23:23:31;99226.81;;;-0.81;94.53
16821;BME280;8527;49.740;6.604;2024-01-15T23:28:33;99240.47;;;-0.91;95.04
16821;BME280;8527;49.740;6.604;2024-01-15T23:33:31;99244.69;;;-0.77;94.63
16821;BME280;8527;49.740;6.604;2024-01-15T23:38:32;99249.41;;;-0.82;94.35
16821;BME280;8527;49.740;6.604;2024-01-15T23:43:31;99243.78;;;-0.76;94.02
16821;BME280;8527;49.740;6.604;2024-01-15T23:48:30;99255.63;;;-0.72;93.99
16821;BME280;8527;49.740;6.604;2024-01-15T23:53:28;99263.75;;;-0.76;94.62
16821;BME280;8527;49.740;6.604;2024-01-15T23:58:33;99272.44;;;-0.76;95.99
